sensor_id;sensor_type;location;lat;lon;timestamp;P1;durP1;ratioP1;P2;durP2;ratioP2
6939;SDS011;3509;48.510;9.076;2022-07-03T00:01:40;14.90;;;12.43;;
6939;SDS011;3509;48.510;9.076;2022-07-03T00:04:06;9.60;;;8.60;;
6939;SDS011;3509;48.510;9.076;2022-07-03T00:06:32;9.00;;;7.35;;
6939;SDS011;3509;48.510;9.076;2022-07-03T00:08:59;13.85;;;7.93;;
6939;SDS011;3509;48.510;9.076;2022-07-03T00:11:27;12.18;;;8.32;;
6939;SDS011;3509;48.510;9.076;2022-07-03T00:13:53;10.32;;;7.32;;
6939;SDS011;3509;48.510;9.076;2022-07-03T00:16:18;7.97;;;6.88;;
6939;SDS011;3509;48.510;9.076;2022-07-03T00:18:44;8.77;;;6.63;;
6939;SDS011;3509;48.510;9.076;2022-07-03T00:21:10;7.38;;;6.68;;
6939;SDS011;3509;48.510;9.076;2022-07-03T00:23:44;7.50;;;6.68;;
6939;SDS011;3509;48.510;9.076;2022-07-03T00:26:12;16.35;;;7.88;;
6939;SDS011;3509;48.510;9.076;2022-07-03T00:28:39;13.18;;;6.95;;
6939;SDS011;3509;48.510;9.076;2022-07-03T00:31:07;10.68;;;7.85;;
6939;SDS011;3509;48.510;9.076;2022-07-03T00:33:33;10.32;;;9.25;;
6939;SDS011;3509;48.510;9.076;2022-07-03T00:36:00;11.60;;;10.45;;
6939;SDS011;3509;48.510;9.076;2022-07-03T00:38:27;16.60;;;11.00;;
6939;SDS011;3509;48.510;9.076;2022-07-03T00:40:53;11.40;;;10.20;;
6939;SDS011;3509;48.510;9.076;2022-07-03T00:43:19;15.32;;;11.60;;
6939;SDS011;3509;48.510;9.076;2022-07-03T00:45:46;14.85;;;11.55;;
6939;SDS011;3509;48.510;9.076;2022-07-03T00:48:14;15.07;;;10.85;;
6939;SDS011;3509;48.510;9.076;2022-07-03T00:50:44;14.35;;;10.93;;
6939;SDS011;3509;48.510;9.076;2022-07-03T00:53:11;14.30;;;12.25;;
6939;SDS011;3509;48.510;9.076;2022-07-03T00:55:38;16.33;;;12.15;;
6939;SDS011;3509;48.510;9.076;2022-07-03T00:58:07;18.55;;;13.73;;
6939;SDS011;3509;48.510;9.076;2022-07-03T01:00:33;16.15;;;14.45;;
6939;SDS011;3509;48.510;9.076;2022-07-03T01:03:05;14.93;;;11.93;;
6939;SDS011;3509;48.510;9.076;2022-07-03T01:05:35;12.60;;;9.23;;
6939;SDS011;3509;48.510;9.076;2022-07-03T01:30:29;11.23;;;9.38;;
6939;SDS011;3509;48.510;9.076;2022-07-03T01:33:05;15.57;;;10.45;;
6939;SDS011;3509;48.510;9.076;2022-07-03T01:35:34;17.98;;;12.18;;
6939;SDS011;3509;48.510;9.076;2022-07-03T01:38:01;19.67;;;13.63;;
6939;SDS011;3509;48.510;9.076;2022-07-03T01:40:29;18.70;;;15.80;;
6939;SDS011;3509;48.510;9.076;2022-07-03T01:42:57;18.70;;;16.15;;
6939;SDS011;3509;48.510;9.076;2022-07-03T01:45:26;17.77;;;12.68;;
6939;SDS011;3509;48.510;9.076;2022-07-03T01:47:53;14.07;;;9.65;;
6939;SDS011;3509;48.510;9.076;2022-07-03T01:50:23;15.02;;;9.68;;
6939;SDS011;3509;48.510;9.076;2022-07-03T01:52:50;12.82;;;9.63;;
6939;SDS011;3509;48.510;9.076;2022-07-03T01:55:17;13.40;;;9.80;;
6939;SDS011;3509;48.510;9.076;2022-07-03T01:57:47;15.32;;;10.55;;
6939;SDS011;3509;48.510;9.076;2022-07-03T02:00:16;13.20;;;10.45;;
6939;SDS011;3509;48.510;9.076;2022-07-03T02:10:34;15.55;;;11.10;;
6939;SDS011;3509;48.510;9.076;2022-07-03T02:13:09;15.65;;;10.77;;
6939;SDS011;3509;48.510;9.076;2022-07-03T02:15:45;15.57;;;10.70;;
6939;SDS011;3509;48.510;9.076;2022-07-03T02:21:06;17.20;;;11.45;;
6939;SDS011;3509;48.510;9.076;2022-07-03T02:23:45;16.15;;;11.32;;
6939;SDS011;3509;48.510;9.076;2022-07-03T02:26:27;15.73;;;11.18;;
6939;SDS011;3509;48.510;9.076;2022-07-03T02:29:01;17.70;;;11.27;;
6939;SDS011;3509;48.510;9.076;2022-07-03T02:31:27;14.75;;;11.20;;
6939;SDS011;3509;48.510;9.076;2022-07-03T02:34:02;18.17;;;11.82;;
6939;SDS011;3509;48.510;9.076;2022-07-03T02:36:31;16.67;;;11.23;;
6939;SDS011;3509;48.510;9.076;2022-07-03T02:39:00;13.52;;;11.18;;
6939;SDS011;3509;48.510;9.076;2022-07-03T02:41:37;16.70;;;10.73;;
6939;SDS011;3509;48.510;9.076;2022-07-03T02:44:08;18.27;;;11.20;;
6939;SDS011;3509;48.510;9.076;2022-07-03T02:57:53;15.02;;;10.60;;
6939;SDS011;3509;48.510;9.076;2022-07-03T03:00:25;15.45;;;10.43;;
6939;SDS011;3509;48.510;9.076;2022-07-03T03:02:54;17.92;;;10.43;;
6939;SDS011;3509;48.510;9.076;2022-07-03T03:05:22;15.63;;;11.18;;
6939;SDS011;3509;48.510;9.076;2022-07-03T03:10:36;13.57;;;9.98;;
6939;SDS011;3509;48.510;9.076;2022-07-03T03:15:30;14.52;;;10.65;;
6939;SDS011;3509;48.510;9.076;2022-07-03T03:18:00;16.38;;;10.45;;
6939;SDS011;3509;48.510;9.076;2022-07-03T03:20:34;13.82;;;10.85;;
6939;SDS011;3509;48.510;9.076;2022-07-03T03:25:45;13.63;;;10.20;;
6939;SDS011;3509;48.510;9.076;2022-07-03T03:28:11;14.23;;;10.38;;
6939;SDS011;3509;48.510;9.076;2022-07-03T03:30:38;14.77;;;10.95;;
6939;SDS011;3509;48.510;9.076;2022-07-03T03:33:05;14.50;;;10.70;;
6939;SDS011;3509;48.510;9.076;2022-07-03T03:35:35;15.43;;;10.82;;
6939;SDS011;3509;48.510;9.076;2022-07-03T03:38:01;15.65;;;10.73;;
6939;SDS011;3509;48.510;9.076;2022-07-03T03:40:27;16.50;;;11.20;;
6939;SDS011;3509;48.510;9.076;2022-07-03T03:42:53;16.42;;;10.85;;
6939;SDS011;3509;48.510;9.076;2022-07-03T03:45:18;14.95;;;10.35;;
6939;SDS011;3509;48.510;9.076;2022-07-03T03:47:44;17.65;;;10.70;;
6939;SDS011;3509;48.510;9.076;2022-07-03T03:50:10;15.77;;;10.77;;
6939;SDS011;3509;48.510;9.076;2022-07-03T03:52:38;15.60;;;10.55;;
6939;SDS011;3509;48.510;9.076;2022-07-03T03:55:04;12.98;;;10.52;;
6939;SDS011;3509;48.510;9.076;2022-07-03T03:57:31;11.82;;;10.38;;
6939;SDS011;3509;48.510;9.076;2022-07-03T03:59:57;14.63;;;10.90;;
6939;SDS011;3509;48.510;9.076;2022-07-03T04:02:23;15.27;;;11.70;;
6939;SDS011;3509;48.510;9.076;2022-07-03T04:04:48;14.77;;;10.57;;
6939;SDS011;3509;48.510;9.076;2022-07-03T04:07:14;12.27;;;10.73;;
6939;SDS011;3509;48.510;9.076;2022-07-03T04:09:40;13.73;;;10.98;;
6939;SDS011;3509;48.510;9.076;2022-07-03T04:12:06;13.70;;;10.07;;
6939;SDS011;3509;48.510;9.076;2022-07-03T04:14:31;15.13;;;10.98;;
6939;SDS011;3509;48.510;9.076;2022-07-03T04:16:57;15.48;;;10.68;;
6939;SDS011;3509;48.510;9.076;2022-07-03T04:19:23;14.07;;;11.60;;
6939;SDS011;3509;48.510;9.076;2022-07-03T04:21:49;15.43;;;11.80;;
6939;SDS011;3509;48.510;9.076;2022-07-03T04:24:16;20.30;;;11.45;;
6939;SDS011;3509;48.510;9.076;2022-07-03T04:26:42;15.43;;;11.15;;
6939;SDS011;3509;48.510;9.076;2022-07-03T04:29:08;13.82;;;11.13;;
6939;SDS011;3509;48.510;9.076;2022-07-03T04:31:34;14.50;;;10.82;;
6939;SDS011;3509;48.510;9.076;2022-07-03T04:33:59;15.88;;;11.27;;
6939;SDS011;3509;48.510;9.076;2022-07-03T04:36:25;14.55;;;11.50;;
6939;SDS011;3509;48.510;9.076;2022-07-03T04:38:51;14.93;;;11.55;;
6939;SDS011;3509;48.510;9.076;2022-07-03T04:41:16;12.88;;;10.82;;
6939;SDS011;3509;48.510;9.076;2022-07-03T04:43:42;16.40;;;11.15;;
6939;SDS011;3509;48.510;9.076;2022-07-03T04:46:08;12.80;;;10.70;;
6939;SDS011;3509;48.510;9.076;2022-07-03T04:48:34;14.30;;;10.95;;
6939;SDS011;3509;48.510;9.076;2022-07-03T04:50:59;14.13;;;10.50;;
6939;SDS011;3509;48.510;9.076;2022-07-03T04:53:25;12.30;;;10.15;;
6939;SDS011;3509;48.510;9.076;2022-07-03T04:55:51;13.93;;;10.55;;
6939;SDS011;3509;48.510;9.076;2022-07-03T04:58:17;13.00;;;10.35;;
6939;SDS011;3509;48.510;9.076;2022-07-03T05:00:43;13.50;;;10.32;;
6939;SDS011;3509;48.510;9.076;2022-07-03T05:03:10;10.45;;;9.35;;
6939;SDS011;3509;48.510;9.076;2022-07-03T05:05:39;10.45;;;8.77;;
6939;SDS011;3509;48.510;9.076;2022-07-03T05:08:05;11.35;;;8.40;;
6939;SDS011;3509;48.510;9.076;2022-07-03T05:10:31;9.23;;;7.63;;
6939;SDS011;3509;48.510;9.076;2022-07-03T05:12:56;7.03;;;6.32;;
6939;SDS011;3509;48.510;9.076;2022-07-03T05:15:22;6.35;;;4.60;;
6939;SDS011;3509;48.510;9.076;2022-07-03T05:17:48;6.85;;;4.53;;
6939;SDS011;3509;48.510;9.076;2022-07-03T05:20:14;5.05;;;3.53;;
6939;SDS011;3509;48.510;9.076;2022-07-03T05:22:49;5.28;;;3.22;;
6939;SDS011;3509;48.510;9.076;2022-07-03T05:25:17;2.75;;;2.53;;
6939;SDS011;3509;48.510;9.076;2022-07-03T05:27:44;4.85;;;2.40;;
6939;SDS011;3509;48.510;9.076;2022-07-03T05:30:09;3.72;;;2.35;;
6939;SDS011;3509;48.510;9.076;2022-07-03T05:32:35;4.68;;;2.55;;
6939;SDS011;3509;48.510;9.076;2022-07-03T05:35:02;4.22;;;2.03;;
6939;SDS011;3509;48.510;9.076;2022-07-03T05:37:28;2.30;;;1.90;;
6939;SDS011;3509;48.510;9.076;2022-07-03T05:39:54;3.33;;;2.20;;
6939;SDS011;3509;48.510;9.076;2022-07-03T05:42:20;2.22;;;1.98;;
6939;SDS011;3509;48.510;9.076;2022-07-03T05:44:46;4.18;;;2.00;;
6939;SDS011;3509;48.510;9.076;2022-07-03T05:47:11;3.30;;;2.00;;
6939;SDS011;3509;48.510;9.076;2022-07-03T05:49:37;3.97;;;2.10;;
6939;SDS011;3509;48.510;9.076;2022-07-03T05:52:03;5.13;;;2.30;;
6939;SDS011;3509;48.510;9.076;2022-07-03T05:54:28;2.92;;;1.90;;
6939;SDS011;3509;48.510;9.076;2022-07-03T05:56:54;2.28;;;2.00;;
6939;SDS011;3509;48.510;9.076;2022-07-03T05:59:20;2.15;;;1.95;;
6939;SDS011;3509;48.510;9.076;2022-07-03T06:01:45;3.90;;;2.00;;
6939;SDS011;3509;48.510;9.076;2022-07-03T06:04:11;3.08;;;2.10;;
6939;SDS011;3509;48.510;9.076;2022-07-03T06:06:37;4.60;;;2.00;;
6939;SDS011;3509;48.510;9.076;2022-07-03T06:09:03;2.42;;;2.20;;
6939;SDS011;3509;48.510;9.076;2022-07-03T06:11:28;4.90;;;2.03;;
6939;SDS011;3509;48.510;9.076;2022-07-03T06:13:54;5.32;;;2.30;;
6939;SDS011;3509;48.510;9.076;2022-07-03T06:16:20;6.18;;;2.00;;
6939;SDS011;3509;48.510;9.076;2022-07-03T06:18:45;3.50;;;2.05;;
6939;SDS011;3509;48.510;9.076;2022-07-03T06:21:11;2.40;;;1.77;;
6939;SDS011;3509;48.510;9.076;2022-07-03T06:23:37;6.90;;;2.10;;
6939;SDS011;3509;48.510;9.076;2022-07-03T06:26:02;3.67;;;2.13;;
6939;SDS011;3509;48.510;9.076;2022-07-03T06:28:28;5.07;;;2.20;;
6939;SDS011;3509;48.510;9.076;2022-07-03T06:30:54;2.03;;;1.83;;
6939;SDS011;3509;48.510;9.076;2022-07-03T06:33:19;3.70;;;1.80;;
6939;SDS011;3509;48.510;9.076;2022-07-03T06:35:45;4.50;;;1.98;;
6939;SDS011;3509;48.510;9.076;2022-07-03T06:38:11;2.72;;;1.80;;
6939;SDS011;3509;48.510;9.076;2022-07-03T06:40:36;1.98;;;1.77;;
6939;SDS011;3509;48.510;9.076;2022-07-03T06:43:02;3.70;;;1.90;;
6939;SDS011;3509;48.510;9.076;2022-07-03T06:45:28;3.25;;;1.80;;
6939;SDS011;3509;48.510;9.076;2022-07-03T06:47:54;2.15;;;1.80;;
6939;SDS011;3509;48.510;9.076;2022-07-03T06:50:19;2.53;;;1.60;;
6939;SDS011;3509;48.510;9.076;2022-07-03T06:52:45;2.83;;;1.90;;
6939;SDS011;3509;48.510;9.076;2022-07-03T06:55:11;2.88;;;1.70;;
6939;SDS011;3509;48.510;9.076;2022-07-03T06:57:36;1.70;;;1.60;;
6939;SDS011;3509;48.510;9.076;2022-07-03T07:00:02;2.55;;;1.70;;
6939;SDS011;3509;48.510;9.076;2022-07-03T07:02:29;2.58;;;1.80;;
6939;SDS011;3509;48.510;9.076;2022-07-03T07:04:54;3.00;;;1.60;;
6939;SDS011;3509;48.510;9.076;2022-07-03T07:07:20;3.75;;;1.60;;
6939;SDS011;3509;48.510;9.076;2022-07-03T07:09:46;3.05;;;1.80;;
6939;SDS011;3509;48.510;9.076;2022-07-03T07:12:11;3.65;;;1.80;;
6939;SDS011;3509;48.510;9.076;2022-07-03T07:14:37;2.97;;;2.00;;
6939;SDS011;3509;48.510;9.076;2022-07-03T07:17:03;2.13;;;1.83;;
6939;SDS011;3509;48.510;9.076;2022-07-03T07:19:29;3.53;;;1.63;;
6939;SDS011;3509;48.510;9.076;2022-07-03T07:21:54;3.80;;;1.75;;
6939;SDS011;3509;48.510;9.076;2022-07-03T07:24:20;3.28;;;1.60;;
6939;SDS011;3509;48.510;9.076;2022-07-03T07:26:45;1.60;;;1.50;;
6939;SDS011;3509;48.510;9.076;2022-07-03T07:29:11;3.63;;;1.63;;
6939;SDS011;3509;48.510;9.076;2022-07-03T07:31:37;2.88;;;1.70;;
6939;SDS011;3509;48.510;9.076;2022-07-03T07:34:03;1.85;;;1.67;;
6939;SDS011;3509;48.510;9.076;2022-07-03T07:36:31;1.60;;;1.42;;
6939;SDS011;3509;48.510;9.076;2022-07-03T07:38:57;1.63;;;1.50;;
6939;SDS011;3509;48.510;9.076;2022-07-03T07:41:23;1.48;;;1.38;;
6939;SDS011;3509;48.510;9.076;2022-07-03T07:43:49;1.52;;;1.35;;
6939;SDS011;3509;48.510;9.076;2022-07-03T07:46:14;3.30;;;1.70;;
6939;SDS011;3509;48.510;9.076;2022-07-03T07:48:40;2.03;;;1.50;;
6939;SDS011;3509;48.510;9.076;2022-07-03T07:51:05;2.22;;;1.50;;
6939;SDS011;3509;48.510;9.076;2022-07-03T07:53:31;3.70;;;1.50;;
6939;SDS011;3509;48.510;9.076;2022-07-03T07:55:57;2.60;;;1.50;;
6939;SDS011;3509;48.510;9.076;2022-07-03T07:58:23;3.10;;;1.60;;
6939;SDS011;3509;48.510;9.076;2022-07-03T08:00:48;1.38;;;1.27;;
6939;SDS011;3509;48.510;9.076;2022-07-03T08:03:32;5.47;;;1.75;;
6939;SDS011;3509;48.510;9.076;2022-07-03T08:06:17;2.95;;;1.55;;
6939;SDS011;3509;48.510;9.076;2022-07-03T08:08:43;2.95;;;1.60;;
6939;SDS011;3509;48.510;9.076;2022-07-03T08:11:09;2.38;;;1.40;;
6939;SDS011;3509;48.510;9.076;2022-07-03T08:13:35;3.65;;;1.50;;
6939;SDS011;3509;48.510;9.076;2022-07-03T08:16:00;4.25;;;1.30;;
6939;SDS011;3509;48.510;9.076;2022-07-03T08:18:26;2.33;;;1.60;;
6939;SDS011;3509;48.510;9.076;2022-07-03T08:20:52;2.28;;;1.30;;
6939;SDS011;3509;48.510;9.076;2022-07-03T08:23:17;3.03;;;1.40;;
6939;SDS011;3509;48.510;9.076;2022-07-03T08:25:43;1.40;;;1.30;;
6939;SDS011;3509;48.510;9.076;2022-07-03T08:28:09;1.95;;;1.35;;
6939;SDS011;3509;48.510;9.076;2022-07-03T08:30:34;3.28;;;1.85;;
6939;SDS011;3509;48.510;9.076;2022-07-03T08:33:00;3.03;;;1.85;;
6939;SDS011;3509;48.510;9.076;2022-07-03T08:35:26;3.85;;;1.40;;
6939;SDS011;3509;48.510;9.076;2022-07-03T08:37:52;6.03;;;1.60;;
6939;SDS011;3509;48.510;9.076;2022-07-03T08:40:18;4.88;;;1.42;;
6939;SDS011;3509;48.510;9.076;2022-07-03T08:42:45;4.53;;;1.63;;
6939;SDS011;3509;48.510;9.076;2022-07-03T08:45:20;2.35;;;1.50;;
6939;SDS011;3509;48.510;9.076;2022-07-03T08:47:47;4.10;;;1.30;;
6939;SDS011;3509;48.510;9.076;2022-07-03T08:50:17;1.70;;;1.30;;
6939;SDS011;3509;48.510;9.076;2022-07-03T08:52:44;3.03;;;1.60;;
6939;SDS011;3509;48.510;9.076;2022-07-03T08:55:11;4.93;;;1.50;;
6939;SDS011;3509;48.510;9.076;2022-07-03T08:57:39;3.17;;;1.40;;
6939;SDS011;3509;48.510;9.076;2022-07-03T09:00:12;5.78;;;1.50;;
6939;SDS011;3509;48.510;9.076;2022-07-03T09:02:40;5.88;;;1.50;;
6939;SDS011;3509;48.510;9.076;2022-07-03T09:05:08;1.58;;;1.17;;
6939;SDS011;3509;48.510;9.076;2022-07-03T09:07:36;1.33;;;1.23;;
6939;SDS011;3509;48.510;9.076;2022-07-03T09:10:03;1.08;;;1.08;;
6939;SDS011;3509;48.510;9.076;2022-07-03T09:12:30;3.55;;;1.30;;
6939;SDS011;3509;48.510;9.076;2022-07-03T09:14:59;2.63;;;1.40;;
6939;SDS011;3509;48.510;9.076;2022-07-03T09:17:29;1.30;;;1.20;;
6939;SDS011;3509;48.510;9.076;2022-07-03T09:19:57;2.00;;;1.40;;
6939;SDS011;3509;48.510;9.076;2022-07-03T09:22:31;3.15;;;1.20;;
6939;SDS011;3509;48.510;9.076;2022-07-03T09:25:31;3.80;;;1.30;;
6939;SDS011;3509;48.510;9.076;2022-07-03T09:27:51;2.85;;;1.25;;
6939;SDS011;3509;48.510;9.076;2022-07-03T09:30:18;1.85;;;1.63;;
6939;SDS011;3509;48.510;9.076;2022-07-03T09:32:45;1.05;;;0.93;;
6939;SDS011;3509;48.510;9.076;2022-07-03T09:35:20;1.40;;;1.30;;
6939;SDS011;3509;48.510;9.076;2022-07-03T09:37:55;3.00;;;2.15;;
6939;SDS011;3509;48.510;9.076;2022-07-03T09:40:21;3.67;;;1.65;;
6939;SDS011;3509;48.510;9.076;2022-07-03T09:42:57;4.30;;;1.10;;
6939;SDS011;3509;48.510;9.076;2022-07-03T09:45:26;2.58;;;1.50;;
6939;SDS011;3509;48.510;9.076;2022-07-03T09:47:52;1.35;;;1.25;;
6939;SDS011;3509;48.510;9.076;2022-07-03T09:50:18;1.52;;;1.00;;
6939;SDS011;3509;48.510;9.076;2022-07-03T09:52:45;1.80;;;1.50;;
6939;SDS011;3509;48.510;9.076;2022-07-03T09:55:15;1.30;;;1.20;;
6939;SDS011;3509;48.510;9.076;2022-07-03T09:57:44;1.30;;;1.20;;
6939;SDS011;3509;48.510;9.076;2022-07-03T10:07:59;1.50;;;1.15;;
6939;SDS011;3509;48.510;9.076;2022-07-03T10:10:28;1.05;;;1.02;;
6939;SDS011;3509;48.510;9.076;2022-07-03T10:12:55;1.30;;;1.20;;
6939;SDS011;3509;48.510;9.076;2022-07-03T10:15:22;8.45;;;1.30;;
6939;SDS011;3509;48.510;9.076;2022-07-03T10:17:50;1.33;;;1.20;;
6939;SDS011;3509;48.510;9.076;2022-07-03T10:20:19;2.55;;;1.10;;
6939;SDS011;3509;48.510;9.076;2022-07-03T10:22:50;1.17;;;1.08;;
6939;SDS011;3509;48.510;9.076;2022-07-03T10:25:16;3.22;;;1.20;;
6939;SDS011;3509;48.510;9.076;2022-07-03T10:27:43;1.98;;;1.77;;
6939;SDS011;3509;48.510;9.076;2022-07-03T10:30:10;1.00;;;1.00;;
6939;SDS011;3509;48.510;9.076;2022-07-03T10:32:37;2.00;;;1.30;;
6939;SDS011;3509;48.510;9.076;2022-07-03T10:35:04;1.42;;;1.33;;
6939;SDS011;3509;48.510;9.076;2022-07-03T10:37:33;1.10;;;1.10;;
6939;SDS011;3509;48.510;9.076;2022-07-03T10:40:14;3.88;;;1.30;;
6939;SDS011;3509;48.510;9.076;2022-07-03T10:43:39;1.30;;;1.20;;
6939;SDS011;3509;48.510;9.076;2022-07-03T10:46:24;1.30;;;1.17;;
6939;SDS011;3509;48.510;9.076;2022-07-03T10:49:01;3.33;;;1.27;;
6939;SDS011;3509;48.510;9.076;2022-07-03T11:07:31;1.73;;;1.40;;
6939;SDS011;3509;48.510;9.076;2022-07-03T11:25:41;2.67;;;1.17;;
6939;SDS011;3509;48.510;9.076;2022-07-03T11:33:46;2.22;;;1.58;;
6939;SDS011;3509;48.510;9.076;2022-07-03T11:38:40;2.17;;;1.55;;
6939;SDS011;3509;48.510;9.076;2022-07-03T11:41:07;0.90;;;0.90;;
6939;SDS011;3509;48.510;9.076;2022-07-03T11:43:34;1.40;;;1.25;;
6939;SDS011;3509;48.510;9.076;2022-07-03T11:46:00;1.02;;;0.90;;
6939;SDS011;3509;48.510;9.076;2022-07-03T11:48:27;1.10;;;1.00;;
6939;SDS011;3509;48.510;9.076;2022-07-03T11:50:57;1.30;;;1.10;;
6939;SDS011;3509;48.510;9.076;2022-07-03T11:53:26;2.35;;;1.30;;
6939;SDS011;3509;48.510;9.076;2022-07-03T11:55:57;3.00;;;1.27;;
6939;SDS011;3509;48.510;9.076;2022-07-03T11:58:41;4.30;;;1.33;;
6939;SDS011;3509;48.510;9.076;2022-07-03T12:17:14;0.95;;;0.95;;
6939;SDS011;3509;48.510;9.076;2022-07-03T12:19:50;3.17;;;1.23;;
6939;SDS011;3509;48.510;9.076;2022-07-03T12:22:31;3.97;;;1.20;;
6939;SDS011;3509;48.510;9.076;2022-07-03T12:25:05;2.75;;;1.00;;
6939;SDS011;3509;48.510;9.076;2022-07-03T12:27:35;2.00;;;1.20;;
6939;SDS011;3509;48.510;9.076;2022-07-03T12:30:03;2.42;;;1.27;;
6939;SDS011;3509;48.510;9.076;2022-07-03T12:32:31;3.45;;;1.40;;
6939;SDS011;3509;48.510;9.076;2022-07-03T12:34:57;1.95;;;1.20;;
6939;SDS011;3509;48.510;9.076;2022-07-03T12:37:40;1.60;;;1.15;;
6939;SDS011;3509;48.510;9.076;2022-07-03T12:40:09;3.40;;;1.08;;
6939;SDS011;3509;48.510;9.076;2022-07-03T12:42:43;2.72;;;1.38;;
6939;SDS011;3509;48.510;9.076;2022-07-03T12:45:20;2.30;;;1.05;;
6939;SDS011;3509;48.510;9.076;2022-07-03T12:48:00;1.73;;;1.20;;
6939;SDS011;3509;48.510;9.076;2022-07-03T12:50:28;1.45;;;1.02;;
6939;SDS011;3509;48.510;9.076;2022-07-03T12:53:25;2.75;;;1.10;;
6939;SDS011;3509;48.510;9.076;2022-07-03T12:56:01;1.92;;;1.20;;
6939;SDS011;3509;48.510;9.076;2022-07-03T12:58:28;4.03;;;1.55;;
6939;SDS011;3509;48.510;9.076;2022-07-03T13:01:31;3.30;;;1.20;;
6939;SDS011;3509;48.510;9.076;2022-07-03T13:03:59;3.67;;;1.17;;
6939;SDS011;3509;48.510;9.076;2022-07-03T13:06:25;1.75;;;0.90;;
6939;SDS011;3509;48.510;9.076;2022-07-03T13:11:53;1.40;;;1.10;;
6939;SDS011;3509;48.510;9.076;2022-07-03T13:14:12;2.17;;;1.30;;
6939;SDS011;3509;48.510;9.076;2022-07-03T13:16:49;3.50;;;1.30;;
6939;SDS011;3509;48.510;9.076;2022-07-03T13:19:18;3.50;;;1.40;;
6939;SDS011;3509;48.510;9.076;2022-07-03T13:21:45;3.78;;;2.20;;
6939;SDS011;3509;48.510;9.076;2022-07-03T13:24:11;1.52;;;1.23;;
6939;SDS011;3509;48.510;9.076;2022-07-03T13:26:38;2.47;;;1.10;;
6939;SDS011;3509;48.510;9.076;2022-07-03T13:29:04;2.28;;;1.30;;
6939;SDS011;3509;48.510;9.076;2022-07-03T13:31:31;2.38;;;1.52;;
6939;SDS011;3509;48.510;9.076;2022-07-03T13:33:57;3.00;;;1.38;;
6939;SDS011;3509;48.510;9.076;2022-07-03T13:36:24;1.45;;;1.30;;
6939;SDS011;3509;48.510;9.076;2022-07-03T13:38:54;4.22;;;1.30;;
6939;SDS011;3509;48.510;9.076;2022-07-03T13:41:20;3.08;;;1.30;;
6939;SDS011;3509;48.510;9.076;2022-07-03T13:43:47;1.85;;;1.10;;
6939;SDS011;3509;48.510;9.076;2022-07-03T13:46:17;2.35;;;1.23;;
6939;SDS011;3509;48.510;9.076;2022-07-03T13:48:44;2.15;;;1.10;;
6939;SDS011;3509;48.510;9.076;2022-07-03T13:51:09;2.30;;;1.60;;
6939;SDS011;3509;48.510;9.076;2022-07-03T13:53:35;3.70;;;1.30;;
6939;SDS011;3509;48.510;9.076;2022-07-03T13:56:01;5.57;;;1.30;;
6939;SDS011;3509;48.510;9.076;2022-07-03T13:58:27;2.25;;;1.20;;
6939;SDS011;3509;48.510;9.076;2022-07-03T14:00:54;3.67;;;1.27;;
6939;SDS011;3509;48.510;9.076;2022-07-03T14:03:20;2.53;;;1.20;;
6939;SDS011;3509;48.510;9.076;2022-07-03T14:05:46;6.35;;;1.27;;
6939;SDS011;3509;48.510;9.076;2022-07-03T14:08:15;1.98;;;1.30;;
6939;SDS011;3509;48.510;9.076;2022-07-03T14:10:42;2.20;;;1.42;;
6939;SDS011;3509;48.510;9.076;2022-07-03T14:13:07;3.15;;;1.20;;
6939;SDS011;3509;48.510;9.076;2022-07-03T14:15:33;3.83;;;1.50;;
6939;SDS011;3509;48.510;9.076;2022-07-03T14:17:59;2.67;;;1.33;;
6939;SDS011;3509;48.510;9.076;2022-07-03T14:20:26;3.72;;;1.38;;
6939;SDS011;3509;48.510;9.076;2022-07-03T14:22:52;2.38;;;1.20;;
6939;SDS011;3509;48.510;9.076;2022-07-03T14:25:18;3.20;;;1.13;;
6939;SDS011;3509;48.510;9.076;2022-07-03T14:27:43;1.45;;;1.27;;
6939;SDS011;3509;48.510;9.076;2022-07-03T14:30:28;2.03;;;1.60;;
6939;SDS011;3509;48.510;9.076;2022-07-03T14:33:12;3.50;;;1.48;;
6939;SDS011;3509;48.510;9.076;2022-07-03T14:35:37;3.30;;;1.38;;
6939;SDS011;3509;48.510;9.076;2022-07-03T14:38:03;4.20;;;1.40;;
6939;SDS011;3509;48.510;9.076;2022-07-03T14:40:29;1.95;;;1.52;;
6939;SDS011;3509;48.510;9.076;2022-07-03T14:42:55;5.15;;;1.45;;
6939;SDS011;3509;48.510;9.076;2022-07-03T14:45:22;2.58;;;1.60;;
6939;SDS011;3509;48.510;9.076;2022-07-03T14:47:48;1.98;;;1.35;;
6939;SDS011;3509;48.510;9.076;2022-07-03T14:50:14;2.00;;;1.30;;
6939;SDS011;3509;48.510;9.076;2022-07-03T14:52:39;3.45;;;1.60;;
6939;SDS011;3509;48.510;9.076;2022-07-03T14:55:05;5.25;;;1.60;;
6939;SDS011;3509;48.510;9.076;2022-07-03T14:57:35;4.50;;;1.30;;
6939;SDS011;3509;48.510;9.076;2022-07-03T15:00:07;3.22;;;1.30;;
6939;SDS011;3509;48.510;9.076;2022-07-03T15:05:27;2.53;;;1.20;;
6939;SDS011;3509;48.510;9.076;2022-07-03T15:10:50;3.25;;;1.27;;
6939;SDS011;3509;48.510;9.076;2022-07-03T15:13:17;2.63;;;1.20;;
6939;SDS011;3509;48.510;9.076;2022-07-03T15:15:45;3.53;;;1.70;;
6939;SDS011;3509;48.510;9.076;2022-07-03T15:18:15;1.65;;;1.38;;
6939;SDS011;3509;48.510;9.076;2022-07-03T15:20:42;12.32;;;5.35;;
6939;SDS011;3509;48.510;9.076;2022-07-03T15:23:09;3.60;;;1.55;;
6939;SDS011;3509;48.510;9.076;2022-07-03T15:25:36;3.53;;;1.55;;
6939;SDS011;3509;48.510;9.076;2022-07-03T15:28:04;1.75;;;1.40;;
6939;SDS011;3509;48.510;9.076;2022-07-03T15:30:33;1.60;;;1.38;;
6939;SDS011;3509;48.510;9.076;2022-07-03T15:32:59;1.92;;;1.40;;
6939;SDS011;3509;48.510;9.076;2022-07-03T15:35:25;4.13;;;1.40;;
6939;SDS011;3509;48.510;9.076;2022-07-03T15:40:39;1.88;;;1.30;;
6939;SDS011;3509;48.510;9.076;2022-07-03T15:54:10;1.20;;;1.10;;
6939;SDS011;3509;48.510;9.076;2022-07-03T15:56:48;1.95;;;1.33;;
6939;SDS011;3509;48.510;9.076;2022-07-03T15:59:20;2.45;;;1.30;;
6939;SDS011;3509;48.510;9.076;2022-07-03T16:01:54;2.13;;;1.13;;
6939;SDS011;3509;48.510;9.076;2022-07-03T16:04:42;3.78;;;1.17;;
6939;SDS011;3509;48.510;9.076;2022-07-03T16:07:35;2.28;;;1.50;;
6939;SDS011;3509;48.510;9.076;2022-07-03T16:10:08;2.58;;;1.40;;
6939;SDS011;3509;48.510;9.076;2022-07-03T16:12:35;2.42;;;1.33;;
6939;SDS011;3509;48.510;9.076;2022-07-03T16:15:03;2.92;;;1.40;;
6939;SDS011;3509;48.510;9.076;2022-07-03T16:17:31;3.22;;;1.20;;
6939;SDS011;3509;48.510;9.076;2022-07-03T16:20:03;1.30;;;1.20;;
6939;SDS011;3509;48.510;9.076;2022-07-03T16:22:32;1.42;;;1.10;;
6939;SDS011;3509;48.510;9.076;2022-07-03T16:24:59;3.58;;;1.40;;
6939;SDS011;3509;48.510;9.076;2022-07-03T16:27:26;3.88;;;1.55;;
6939;SDS011;3509;48.510;9.076;2022-07-03T16:29:53;1.35;;;1.25;;
6939;SDS011;3509;48.510;9.076;2022-07-03T16:32:20;4.30;;;1.50;;
6939;SDS011;3509;48.510;9.076;2022-07-03T16:37:32;2.35;;;1.42;;
6939;SDS011;3509;48.510;9.076;2022-07-03T16:40:03;1.65;;;1.13;;
6939;SDS011;3509;48.510;9.076;2022-07-03T16:42:30;2.08;;;1.40;;
6939;SDS011;3509;48.510;9.076;2022-07-03T16:45:08;1.35;;;1.20;;
6939;SDS011;3509;48.510;9.076;2022-07-03T16:47:56;1.92;;;1.40;;
6939;SDS011;3509;48.510;9.076;2022-07-03T16:50:24;1.25;;;1.15;;
6939;SDS011;3509;48.510;9.076;2022-07-03T16:52:51;1.85;;;1.35;;
6939;SDS011;3509;48.510;9.076;2022-07-03T16:55:20;2.03;;;1.40;;
6939;SDS011;3509;48.510;9.076;2022-07-03T16:57:51;3.20;;;1.50;;
6939;SDS011;3509;48.510;9.076;2022-07-03T17:00:23;2.60;;;1.58;;
6939;SDS011;3509;48.510;9.076;2022-07-03T17:02:50;2.15;;;1.55;;
6939;SDS011;3509;48.510;9.076;2022-07-03T17:05:18;2.55;;;1.35;;
6939;SDS011;3509;48.510;9.076;2022-07-03T17:07:46;3.78;;;1.40;;
6939;SDS011;3509;48.510;9.076;2022-07-03T17:10:14;2.30;;;1.50;;
6939;SDS011;3509;48.510;9.076;2022-07-03T17:12:41;2.08;;;1.40;;
6939;SDS011;3509;48.510;9.076;2022-07-03T17:15:11;1.67;;;1.35;;
6939;SDS011;3509;48.510;9.076;2022-07-03T17:17:45;3.25;;;1.52;;
6939;SDS011;3509;48.510;9.076;2022-07-03T17:20:25;2.15;;;1.65;;
6939;SDS011;3509;48.510;9.076;2022-07-03T17:23:06;6.43;;;1.60;;
6939;SDS011;3509;48.510;9.076;2022-07-03T17:25:41;6.13;;;2.22;;
6939;SDS011;3509;48.510;9.076;2022-07-03T17:28:14;2.40;;;1.90;;
6939;SDS011;3509;48.510;9.076;2022-07-03T17:30:43;3.05;;;1.70;;
6939;SDS011;3509;48.510;9.076;2022-07-03T17:33:12;1.70;;;1.60;;
6939;SDS011;3509;48.510;9.076;2022-07-03T17:35:43;1.85;;;1.60;;
6939;SDS011;3509;48.510;9.076;2022-07-03T17:38:12;3.50;;;1.73;;